sensor_id;sensor_type;location;lat;lon;timestamp;P1;durP1;ratioP1;P2;durP2;ratioP2
13481;SDS011;6813;60.352;15.746;2023-02-28T00:00:30;0.13;;;0.13;;
13481;SDS011;6813;60.352;15.746;2023-02-28T00:02:56;8.27;;;3.43;;
13481;SDS011;6813;60.352;15.746;2023-02-28T00:05:23;9.57;;;4.03;;
13481;SDS011;6813;60.352;15.746;2023-02-28T00:07:50;0.90;;;0.67;;
13481;SDS011;6813;60.352;15.746;2023-02-28T00:10:18;0.63;;;0.50;;
13481;SDS011;6813;60.352;15.746;2023-02-28T00:12:49;1.33;;;1.00;;
13481;SDS011;6813;60.352;15.746;2023-02-28T00:15:16;0.53;;;0.50;;
13481;SDS011;6813;60.352;15.746;2023-02-28T00:17:42;0.40;;;0.27;;
13481;SDS011;6813;60.352;15.746;2023-02-28T00:20:09;0.17;;;0.17;;
13481;SDS011;6813;60.352;15.746;2023-02-28T00:22:37;0.27;;;0.20;;
13481;SDS011;6813;60.352;15.746;2023-02-28T00:25:04;0.10;;;0.10;;
13481;SDS011;6813;60.352;15.746;2023-02-28T00:27:32;0.30;;;0.30;;
13481;SDS011;6813;60.352;15.746;2023-02-28T00:29:58;0.27;;;0.10;;
13481;SDS011;6813;60.352;15.746;2023-02-28T00:32:24;0.17;;;0.17;;
13481;SDS011;6813;60.352;15.746;2023-02-28T00:34:50;0.00;;;0.00;;
13481;SDS011;6813;60.352;15.746;2023-02-28T00:37:15;0.23;;;0.20;;
13481;SDS011;6813;60.352;15.746;2023-02-28T00:39:41;0.30;;;0.23;;
13481;SDS011;6813;60.352;15.746;2023-02-28T00:42:07;0.87;;;0.30;;
13481;SDS011;6813;60.352;15.746;2023-02-28T00:44:33;0.20;;;0.20;;
13481;SDS011;6813;60.352;15.746;2023-02-28T00:46:59;0.20;;;0.20;;
13481;SDS011;6813;60.352;15.746;2023-02-28T00:49:25;0.53;;;0.47;;
13481;SDS011;6813;60.352;15.746;2023-02-28T00:51:52;0.10;;;0.10;;
13481;SDS011;6813;60.352;15.746;2023-02-28T00:54:19;0.20;;;0.20;;
13481;SDS011;6813;60.352;15.746;2023-02-28T00:56:45;0.20;;;0.20;;
13481;SDS011;6813;60.352;15.746;2023-02-28T00:59:15;0.17;;;0.17;;
13481;SDS011;6813;60.352;15.746;2023-02-28T01:01:42;0.40;;;0.30;;
13481;SDS011;6813;60.352;15.746;2023-02-28T01:04:09;0.20;;;0.20;;
13481;SDS011;6813;60.352;15.746;2023-02-28T01:06:34;0.10;;;0.10;;
13481;SDS011;6813;60.352;15.746;2023-02-28T01:09:01;0.20;;;0.20;;
13481;SDS011;6813;60.352;15.746;2023-02-28T01:11:27;0.23;;;0.23;;
13481;SDS011;6813;60.352;15.746;2023-02-28T01:13:53;0.20;;;0.20;;
13481;SDS011;6813;60.352;15.746;2023-02-28T01:16:19;0.27;;;0.13;;
13481;SDS011;6813;60.352;15.746;2023-02-28T01:18:44;0.30;;;0.27;;
13481;SDS011;6813;60.352;15.746;2023-02-28T01:21:11;0.60;;;0.40;;
13481;SDS011;6813;60.352;15.746;2023-02-28T01:23:39;0.23;;;0.10;;
13481;SDS011;6813;60.352;15.746;2023-02-28T01:26:24;0.93;;;0.20;;
13481;SDS011;6813;60.352;15.746;2023-02-28T01:28:50;0.83;;;0.77;;
13481;SDS011;6813;60.352;15.746;2023-02-28T01:31:17;0.83;;;0.70;;
13481;SDS011;6813;60.352;15.746;2023-02-28T01:33:44;0.40;;;0.30;;
13481;SDS011;6813;60.352;15.746;2023-02-28T01:36:20;0.20;;;0.20;;
13481;SDS011;6813;60.352;15.746;2023-02-28T01:38:48;0.10;;;0.10;;
13481;SDS011;6813;60.352;15.746;2023-02-28T01:46:12;0.10;;;0.10;;
13481;SDS011;6813;60.352;15.746;2023-02-28T01:48:40;0.20;;;0.20;;
13481;SDS011;6813;60.352;15.746;2023-02-28T01:51:11;2.23;;;0.30;;
13481;SDS011;6813;60.352;15.746;2023-02-28T01:53:51;0.20;;;0.20;;
13481;SDS011;6813;60.352;15.746;2023-02-28T01:56:23;0.20;;;0.20;;
13481;SDS011;6813;60.352;15.746;2023-02-28T01:58:52;0.10;;;0.10;;
13481;SDS011;6813;60.352;15.746;2023-02-28T02:01:20;0.23;;;0.17;;
13481;SDS011;6813;60.352;15.746;2023-02-28T02:03:54;0.47;;;0.20;;
13481;SDS011;6813;60.352;15.746;2023-02-28T02:06:26;0.30;;;0.17;;
13481;SDS011;6813;60.352;15.746;2023-02-28T02:08:55;0.10;;;0.10;;
13481;SDS011;6813;60.352;15.746;2023-02-28T02:11:21;0.20;;;0.20;;
13481;SDS011;6813;60.352;15.746;2023-02-28T02:13:55;0.10;;;0.10;;
13481;SDS011;6813;60.352;15.746;2023-02-28T02:16:37;0.10;;;0.10;;
13481;SDS011;6813;60.352;15.746;2023-02-28T02:25:20;0.40;;;0.10;;
13481;SDS011;6813;60.352;15.746;2023-02-28T02:28:11;0.10;;;0.10;;
13481;SDS011;6813;60.352;15.746;2023-02-28T02:30:52;0.10;;;0.10;;
13481;SDS011;6813;60.352;15.746;2023-02-28T02:48:57;0.17;;;0.17;;
13481;SDS011;6813;60.352;15.746;2023-02-28T02:51:25;0.10;;;0.10;;
13481;SDS011;6813;60.352;15.746;2023-02-28T02:54:02;0.10;;;0.10;;
13481;SDS011;6813;60.352;15.746;2023-02-28T02:56:42;0.80;;;0.23;;
13481;SDS011;6813;60.352;15.746;2023-02-28T02:59:13;0.10;;;0.10;;
13481;SDS011;6813;60.352;15.746;2023-02-28T03:01:40;0.30;;;0.10;;
13481;SDS011;6813;60.352;15.746;2023-02-28T03:04:08;0.10;;;0.10;;
13481;SDS011;6813;60.352;15.746;2023-02-28T03:06:36;0.20;;;0.20;;
13481;SDS011;6813;60.352;15.746;2023-02-28T03:09:02;0.37;;;0.37;;
13481;SDS011;6813;60.352;15.746;2023-02-28T03:11:29;0.50;;;0.40;;
13481;SDS011;6813;60.352;15.746;2023-02-28T03:22:08;0.20;;;0.20;;
13481;SDS011;6813;60.352;15.746;2023-02-28T03:27:29;0.47;;;0.20;;
13481;SDS011;6813;60.352;15.746;2023-02-28T03:32:57;0.50;;;0.40;;
13481;SDS011;6813;60.352;15.746;2023-02-28T03:35:40;0.20;;;0.20;;
13481;SDS011;6813;60.352;15.746;2023-02-28T03:39:04;0.30;;;0.27;;
13481;SDS011;6813;60.352;15.746;2023-02-28T03:41:19;0.30;;;0.30;;
13481;SDS011;6813;60.352;15.746;2023-02-28T03:46:56;0.10;;;0.10;;
13481;SDS011;6813;60.352;15.746;2023-02-28T03:49:27;0.10;;;0.10;;
13481;SDS011;6813;60.352;15.746;2023-02-28T03:52:01;0.10;;;0.10;;
13481;SDS011;6813;60.352;15.746;2023-02-28T03:54:30;0.20;;;0.20;;
13481;SDS011;6813;60.352;15.746;2023-02-28T03:57:06;0.17;;;0.17;;
13481;SDS011;6813;60.352;15.746;2023-02-28T03:59:43;0.10;;;0.10;;
13481;SDS011;6813;60.352;15.746;2023-02-28T04:02:13;0.10;;;0.10;;
13481;SDS011;6813;60.352;15.746;2023-02-28T04:04:38;0.10;;;0.10;;
13481;SDS011;6813;60.352;15.746;2023-02-28T04:07:10;0.40;;;0.10;;
13481;SDS011;6813;60.352;15.746;2023-02-28T04:09:36;0.27;;;0.27;;
13481;SDS011;6813;60.352;15.746;2023-02-28T04:12:02;0.10;;;0.10;;
13481;SDS011;6813;60.352;15.746;2023-02-28T04:14:28;0.20;;;0.20;;
13481;SDS011;6813;60.352;15.746;2023-02-28T04:16:54;0.10;;;0.10;;
13481;SDS011;6813;60.352;15.746;2023-02-28T04:19:20;0.20;;;0.17;;
13481;SDS011;6813;60.352;15.746;2023-02-28T04:21:46;0.20;;;0.20;;
13481;SDS011;6813;60.352;15.746;2023-02-28T04:24:17;0.20;;;0.20;;
13481;SDS011;6813;60.352;15.746;2023-02-28T04:26:46;0.10;;;0.10;;
13481;SDS011;6813;60.352;15.746;2023-02-28T04:29:15;0.30;;;0.30;;
13481;SDS011;6813;60.352;15.746;2023-02-28T04:31:44;0.20;;;0.20;;
13481;SDS011;6813;60.352;15.746;2023-02-28T04:34:10;0.70;;;0.67;;
13481;SDS011;6813;60.352;15.746;2023-02-28T04:36:36;0.60;;;0.40;;
13481;SDS011;6813;60.352;15.746;2023-02-28T04:39:01;0.30;;;0.30;;
13481;SDS011;6813;60.352;15.746;2023-02-28T04:41:28;0.30;;;0.30;;
13481;SDS011;6813;60.352;15.746;2023-02-28T04:43:54;0.30;;;0.30;;
13481;SDS011;6813;60.352;15.746;2023-02-28T04:46:21;0.40;;;0.30;;
13481;SDS011;6813;60.352;15.746;2023-02-28T04:48:47;0.30;;;0.30;;
13481;SDS011;6813;60.352;15.746;2023-02-28T04:51:13;0.20;;;0.20;;
13481;SDS011;6813;60.352;15.746;2023-02-28T04:53:41;0.20;;;0.20;;
13481;SDS011;6813;60.352;15.746;2023-02-28T04:56:09;0.20;;;0.20;;
13481;SDS011;6813;60.352;15.746;2023-02-28T04:58:40;0.30;;;0.30;;
13481;SDS011;6813;60.352;15.746;2023-02-28T05:01:13;0.73;;;0.60;;
13481;SDS011;6813;60.352;15.746;2023-02-28T05:03:41;1.37;;;1.00;;
13481;SDS011;6813;60.352;15.746;2023-02-28T05:06:07;0.97;;;0.73;;
13481;SDS011;6813;60.352;15.746;2023-02-28T05:08:34;0.93;;;0.93;;
13481;SDS011;6813;60.352;15.746;2023-02-28T05:11:00;1.57;;;1.13;;
13481;SDS011;6813;60.352;15.746;2023-02-28T05:13:26;0.70;;;0.70;;
13481;SDS011;6813;60.352;15.746;2023-02-28T05:15:53;1.07;;;1.07;;
13481;SDS011;6813;60.352;15.746;2023-02-28T05:18:19;0.87;;;0.80;;
13481;SDS011;6813;60.352;15.746;2023-02-28T05:20:44;1.07;;;0.97;;
13481;SDS011;6813;60.352;15.746;2023-02-28T05:23:11;1.50;;;0.70;;
13481;SDS011;6813;60.352;15.746;2023-02-28T05:25:38;0.67;;;0.67;;
13481;SDS011;6813;60.352;15.746;2023-02-28T05:28:04;0.30;;;0.30;;
13481;SDS011;6813;60.352;15.746;2023-02-28T05:30:30;0.43;;;0.43;;
13481;SDS011;6813;60.352;15.746;2023-02-28T05:32:56;0.50;;;0.50;;
13481;SDS011;6813;60.352;15.746;2023-02-28T05:35:23;0.40;;;0.40;;
13481;SDS011;6813;60.352;15.746;2023-02-28T05:37:49;1.00;;;0.57;;
13481;SDS011;6813;60.352;15.746;2023-02-28T05:40:16;1.10;;;0.50;;
13481;SDS011;6813;60.352;15.746;2023-02-28T05:42:42;0.70;;;0.67;;
13481;SDS011;6813;60.352;15.746;2023-02-28T05:45:08;0.63;;;0.40;;
13481;SDS011;6813;60.352;15.746;2023-02-28T05:47:34;0.87;;;0.80;;
13481;SDS011;6813;60.352;15.746;2023-02-28T05:50:00;0.60;;;0.60;;
13481;SDS011;6813;60.352;15.746;2023-02-28T05:52:27;0.83;;;0.83;;
13481;SDS011;6813;60.352;15.746;2023-02-28T05:54:55;1.80;;;0.90;;
13481;SDS011;6813;60.352;15.746;2023-02-28T05:57:21;1.13;;;0.90;;
13481;SDS011;6813;60.352;15.746;2023-02-28T05:59:47;0.67;;;0.67;;
13481;SDS011;6813;60.352;15.746;2023-02-28T06:02:14;1.20;;;0.63;;
13481;SDS011;6813;60.352;15.746;2023-02-28T06:04:42;2.20;;;0.90;;
13481;SDS011;6813;60.352;15.746;2023-02-28T06:07:09;0.40;;;0.40;;
13481;SDS011;6813;60.352;15.746;2023-02-28T06:09:36;0.90;;;0.70;;
13481;SDS011;6813;60.352;15.746;2023-02-28T06:12:02;0.60;;;0.60;;
13481;SDS011;6813;60.352;15.746;2023-02-28T06:14:31;0.93;;;0.93;;
13481;SDS011;6813;60.352;15.746;2023-02-28T06:16:58;1.30;;;1.20;;
13481;SDS011;6813;60.352;15.746;2023-02-28T06:19:25;0.80;;;0.60;;
13481;SDS011;6813;60.352;15.746;2023-02-28T06:21:52;0.87;;;0.57;;
13481;SDS011;6813;60.352;15.746;2023-02-28T06:24:19;0.27;;;0.20;;
13481;SDS011;6813;60.352;15.746;2023-02-28T06:26:45;0.43;;;0.30;;
13481;SDS011;6813;60.352;15.746;2023-02-28T06:29:11;0.40;;;0.40;;
13481;SDS011;6813;60.352;15.746;2023-02-28T06:31:37;0.30;;;0.30;;
13481;SDS011;6813;60.352;15.746;2023-02-28T06:34:03;0.20;;;0.20;;
13481;SDS011;6813;60.352;15.746;2023-02-28T06:36:30;0.20;;;0.20;;
13481;SDS011;6813;60.352;15.746;2023-02-28T06:38:55;0.37;;;0.37;;
13481;SDS011;6813;60.352;15.746;2023-02-28T06:41:24;0.13;;;0.13;;
13481;SDS011;6813;60.352;15.746;2023-02-28T06:43:51;0.20;;;0.20;;
13481;SDS011;6813;60.352;15.746;2023-02-28T06:46:18;0.53;;;0.37;;
13481;SDS011;6813;60.352;15.746;2023-02-28T06:48:44;0.50;;;0.50;;
13481;SDS011;6813;60.352;15.746;2023-02-28T06:51:13;2.77;;;1.00;;
13481;SDS011;6813;60.352;15.746;2023-02-28T06:53:41;0.30;;;0.30;;
13481;SDS011;6813;60.352;15.746;2023-02-28T06:56:08;0.20;;;0.20;;
13481;SDS011;6813;60.352;15.746;2023-02-28T06:58:37;0.27;;;0.27;;
13481;SDS011;6813;60.352;15.746;2023-02-28T07:01:04;0.27;;;0.27;;
13481;SDS011;6813;60.352;15.746;2023-02-28T07:03:31;0.20;;;0.20;;
13481;SDS011;6813;60.352;15.746;2023-02-28T07:05:57;1.70;;;0.67;;
13481;SDS011;6813;60.352;15.746;2023-02-28T07:08:24;0.20;;;0.20;;
13481;SDS011;6813;60.352;15.746;2023-02-28T07:10:56;1.03;;;0.20;;
13481;SDS011;6813;60.352;15.746;2023-02-28T07:13:22;0.10;;;0.10;;
13481;SDS011;6813;60.352;15.746;2023-02-28T07:15:58;0.20;;;0.20;;
13481;SDS011;6813;60.352;15.746;2023-02-28T07:18:26;2.03;;;0.10;;
13481;SDS011;6813;60.352;15.746;2023-02-28T07:20:52;0.33;;;0.10;;
13481;SDS011;6813;60.352;15.746;2023-02-28T07:23:19;0.10;;;0.10;;
13481;SDS011;6813;60.352;15.746;2023-02-28T07:25:45;0.10;;;0.10;;
13481;SDS011;6813;60.352;15.746;2023-02-28T07:28:11;0.30;;;0.30;;
13481;SDS011;6813;60.352;15.746;2023-02-28T07:30:38;0.23;;;0.20;;
13481;SDS011;6813;60.352;15.746;2023-02-28T07:33:03;0.37;;;0.37;;
13481;SDS011;6813;60.352;15.746;2023-02-28T07:35:29;0.20;;;0.20;;
13481;SDS011;6813;60.352;15.746;2023-02-28T07:37:59;0.20;;;0.20;;
13481;SDS011;6813;60.352;15.746;2023-02-28T07:40:25;0.10;;;0.10;;
13481;SDS011;6813;60.352;15.746;2023-02-28T07:42:51;0.20;;;0.20;;
13481;SDS011;6813;60.352;15.746;2023-02-28T07:45:17;0.20;;;0.20;;
13481;SDS011;6813;60.352;15.746;2023-02-28T07:47:43;0.20;;;0.20;;
13481;SDS011;6813;60.352;15.746;2023-02-28T07:50:10;0.20;;;0.20;;
13481;SDS011;6813;60.352;15.746;2023-02-28T07:52:37;0.20;;;0.20;;
13481;SDS011;6813;60.352;15.746;2023-02-28T07:55:04;0.20;;;0.20;;
13481;SDS011;6813;60.352;15.746;2023-02-28T07:57:31;0.20;;;0.20;;
13481;SDS011;6813;60.352;15.746;2023-02-28T07:59:57;0.87;;;0.70;;
13481;SDS011;6813;60.352;15.746;2023-02-28T08:02:22;0.57;;;0.57;;
13481;SDS011;6813;60.352;15.746;2023-02-28T08:04:48;0.20;;;0.20;;
13481;SDS011;6813;60.352;15.746;2023-02-28T08:07:14;0.33;;;0.33;;
13481;SDS011;6813;60.352;15.746;2023-02-28T08:09:41;0.20;;;0.20;;
13481;SDS011;6813;60.352;15.746;2023-02-28T08:12:07;0.10;;;0.10;;
13481;SDS011;6813;60.352;15.746;2023-02-28T08:14:34;0.20;;;0.20;;
13481;SDS011;6813;60.352;15.746;2023-02-28T08:17:00;0.20;;;0.20;;
13481;SDS011;6813;60.352;15.746;2023-02-28T08:19:26;0.20;;;0.20;;
13481;SDS011;6813;60.352;15.746;2023-02-28T08:21:52;0.20;;;0.20;;
13481;SDS011;6813;60.352;15.746;2023-02-28T08:24:18;0.17;;;0.17;;
13481;SDS011;6813;60.352;15.746;2023-02-28T08:26:43;0.10;;;0.10;;
13481;SDS011;6813;60.352;15.746;2023-02-28T08:29:09;0.10;;;0.10;;
13481;SDS011;6813;60.352;15.746;2023-02-28T08:31:35;0.20;;;0.20;;
13481;SDS011;6813;60.352;15.746;2023-02-28T08:34:05;0.20;;;0.20;;
13481;SDS011;6813;60.352;15.746;2023-02-28T08:36:32;0.20;;;0.20;;
13481;SDS011;6813;60.352;15.746;2023-02-28T08:38:57;0.30;;;0.30;;
13481;SDS011;6813;60.352;15.746;2023-02-28T08:41:24;0.20;;;0.20;;
13481;SDS011;6813;60.352;15.746;2023-02-28T08:43:51;0.13;;;0.13;;
13481;SDS011;6813;60.352;15.746;2023-02-28T08:46:17;0.20;;;0.20;;
13481;SDS011;6813;60.352;15.746;2023-02-28T08:48:43;0.20;;;0.20;;
13481;SDS011;6813;60.352;15.746;2023-02-28T08:51:13;0.20;;;0.20;;
13481;SDS011;6813;60.352;15.746;2023-02-28T08:53:46;0.90;;;0.20;;
13481;SDS011;6813;60.352;15.746;2023-02-28T08:56:14;0.20;;;0.20;;
13481;SDS011;6813;60.352;15.746;2023-02-28T08:58:42;0.10;;;0.10;;
13481;SDS011;6813;60.352;15.746;2023-02-28T09:01:12;0.20;;;0.20;;
13481;SDS011;6813;60.352;15.746;2023-02-28T09:03:40;0.10;;;0.10;;
13481;SDS011;6813;60.352;15.746;2023-02-28T09:06:06;0.10;;;0.10;;
13481;SDS011;6813;60.352;15.746;2023-02-28T09:08:33;0.20;;;0.20;;
13481;SDS011;6813;60.352;15.746;2023-02-28T09:10:59;0.23;;;0.23;;
13481;SDS011;6813;60.352;15.746;2023-02-28T09:13:27;0.17;;;0.17;;
13481;SDS011;6813;60.352;15.746;2023-02-28T09:15:54;0.20;;;0.20;;
13481;SDS011;6813;60.352;15.746;2023-02-28T09:18:22;0.40;;;0.20;;
13481;SDS011;6813;60.352;15.746;2023-02-28T09:20:47;0.10;;;0.10;;
13481;SDS011;6813;60.352;15.746;2023-02-28T09:23:13;0.30;;;0.20;;
13481;SDS011;6813;60.352;15.746;2023-02-28T09:25:49;0.20;;;0.20;;
13481;SDS011;6813;60.352;15.746;2023-02-28T09:28:16;0.20;;;0.20;;
13481;SDS011;6813;60.352;15.746;2023-02-28T09:30:42;0.10;;;0.10;;
13481;SDS011;6813;60.352;15.746;2023-02-28T09:33:10;0.20;;;0.20;;
13481;SDS011;6813;60.352;15.746;2023-02-28T09:35:35;0.20;;;0.20;;
13481;SDS011;6813;60.352;15.746;2023-02-28T09:38:02;0.20;;;0.20;;
13481;SDS011;6813;60.352;15.746;2023-02-28T09:40:28;0.20;;;0.20;;
13481;SDS011;6813;60.352;15.746;2023-02-28T09:42:55;0.10;;;0.10;;
13481;SDS011;6813;60.352;15.746;2023-02-28T09:48:21;0.50;;;0.10;;
13481;SDS011;6813;60.352;15.746;2023-02-28T09:50:52;0.17;;;0.17;;
13481;SDS011;6813;60.352;15.746;2023-02-28T09:53:27;0.37;;;0.30;;
13481;SDS011;6813;60.352;15.746;2023-02-28T09:56:37;0.30;;;0.10;;
13481;SDS011;6813;60.352;15.746;2023-02-28T10:02:17;0.20;;;0.20;;
13481;SDS011;6813;60.352;15.746;2023-02-28T10:07:41;0.10;;;0.10;;
13481;SDS011;6813;60.352;15.746;2023-02-28T10:10:45;0.20;;;0.20;;
13481;SDS011;6813;60.352;15.746;2023-02-28T10:13:27;0.20;;;0.10;;
13481;SDS011;6813;60.352;15.746;2023-02-28T10:16:01;0.10;;;0.10;;
13481;SDS011;6813;60.352;15.746;2023-02-28T10:18:38;0.57;;;0.20;;
13481;SDS011;6813;60.352;15.746;2023-02-28T10:21:13;0.37;;;0.20;;
13481;SDS011;6813;60.352;15.746;2023-02-28T10:23:45;0.20;;;0.20;;
13481;SDS011;6813;60.352;15.746;2023-02-28T10:26:13;0.20;;;0.20;;
13481;SDS011;6813;60.352;15.746;2023-02-28T10:28:41;0.10;;;0.10;;
13481;SDS011;6813;60.352;15.746;2023-02-28T10:31:08;0.10;;;0.10;;
13481;SDS011;6813;60.352;15.746;2023-02-28T10:33:42;0.30;;;0.20;;
13481;SDS011;6813;60.352;15.746;2023-02-28T10:36:11;0.37;;;0.30;;
13481;SDS011;6813;60.352;15.746;2023-02-28T10:38:41;0.20;;;0.13;;
13481;SDS011;6813;60.352;15.746;2023-02-28T10:43:39;0.20;;;0.20;;
13481;SDS011;6813;60.352;15.746;2023-02-28T10:48:45;0.40;;;0.30;;
13481;SDS011;6813;60.352;15.746;2023-02-28T10:51:16;0.23;;;0.23;;
13481;SDS011;6813;60.352;15.746;2023-02-28T10:56:20;0.27;;;0.23;;
13481;SDS011;6813;60.352;15.746;2023-02-28T11:01:34;0.83;;;0.23;;
13481;SDS011;6813;60.352;15.746;2023-02-28T11:04:03;0.20;;;0.20;;
13481;SDS011;6813;60.352;15.746;2023-02-28T11:06:42;0.60;;;0.20;;
13481;SDS011;6813;60.352;15.746;2023-02-28T11:09:16;0.20;;;0.20;;
13481;SDS011;6813;60.352;15.746;2023-02-28T11:11:47;0.53;;;0.30;;
13481;SDS011;6813;60.352;15.746;2023-02-28T11:14:33;0.57;;;0.30;;
13481;SDS011;6813;60.352;15.746;2023-02-28T11:17:13;0.20;;;0.20;;
13481;SDS011;6813;60.352;15.746;2023-02-28T11:19:44;0.20;;;0.10;;
13481;SDS011;6813;60.352;15.746;2023-02-28T11:22:16;0.20;;;0.20;;
13481;SDS011;6813;60.352;15.746;2023-02-28T11:24:46;0.33;;;0.20;;
13481;SDS011;6813;60.352;15.746;2023-02-28T11:27:40;0.67;;;0.27;;
13481;SDS011;6813;60.352;15.746;2023-02-28T11:30:59;0.33;;;0.20;;
13481;SDS011;6813;60.352;15.746;2023-02-28T11:32:58;0.63;;;0.30;;
13481;SDS011;6813;60.352;15.746;2023-02-28T11:38:03;0.63;;;0.37;;
13481;SDS011;6813;60.352;15.746;2023-02-28T11:41:17;0.30;;;0.30;;
13481;SDS011;6813;60.352;15.746;2023-02-28T11:46:30;0.50;;;0.20;;
13481;SDS011;6813;60.352;15.746;2023-02-28T11:49:16;0.23;;;0.23;;
13481;SDS011;6813;60.352;15.746;2023-02-28T11:52:05;0.30;;;0.23;;
13481;SDS011;6813;60.352;15.746;2023-02-28T11:57:11;1.10;;;0.57;;
13481;SDS011;6813;60.352;15.746;2023-02-28T12:05:48;0.40;;;0.40;;
13481;SDS011;6813;60.352;15.746;2023-02-28T12:19:44;0.87;;;0.20;;
13481;SDS011;6813;60.352;15.746;2023-02-28T12:27:38;0.50;;;0.30;;
13481;SDS011;6813;60.352;15.746;2023-02-28T12:30:24;0.50;;;0.23;;
13481;SDS011;6813;60.352;15.746;2023-02-28T12:32:56;0.87;;;0.50;;
13481;SDS011;6813;60.352;15.746;2023-02-28T12:35:41;0.30;;;0.30;;
13481;SDS011;6813;60.352;15.746;2023-02-28T12:41:31;0.77;;;0.40;;
13481;SDS011;6813;60.352;15.746;2023-02-28T12:44:06;1.13;;;0.30;;
13481;SDS011;6813;60.352;15.746;2023-02-28T12:46:41;0.20;;;0.20;;
13481;SDS011;6813;60.352;15.746;2023-02-28T12:49:56;0.20;;;0.20;;
13481;SDS011;6813;60.352;15.746;2023-02-28T12:51:58;0.73;;;0.30;;
13481;SDS011;6813;60.352;15.746;2023-02-28T12:56:57;1.03;;;0.30;;
13481;SDS011;6813;60.352;15.746;2023-02-28T12:59:33;0.20;;;0.20;;
13481;SDS011;6813;60.352;15.746;2023-02-28T13:08:03;0.50;;;0.40;;
13481;SDS011;6813;60.352;15.746;2023-02-28T13:10:57;0.40;;;0.30;;
13481;SDS011;6813;60.352;15.746;2023-02-28T13:13:24;1.07;;;0.30;;
13481;SDS011;6813;60.352;15.746;2023-02-28T13:15:56;0.33;;;0.33;;
13481;SDS011;6813;60.352;15.746;2023-02-28T13:18:35;0.40;;;0.40;;
13481;SDS011;6813;60.352;15.746;2023-02-28T13:21:02;1.57;;;0.30;;
13481;SDS011;6813;60.352;15.746;2023-02-28T13:23:55;0.40;;;0.30;;
13481;SDS011;6813;60.352;15.746;2023-02-28T13:32:18;1.17;;;0.50;;
13481;SDS011;6813;60.352;15.746;2023-02-28T13:34:40;0.27;;;0.27;;
13481;SDS011;6813;60.352;15.746;2023-02-28T13:47:35;0.33;;;0.20;;
13481;SDS011;6813;60.352;15.746;2023-02-28T14:06:50;0.40;;;0.30;;
13481;SDS011;6813;60.352;15.746;2023-02-28T14:11:51;0.50;;;0.30;;
13481;SDS011;6813;60.352;15.746;2023-02-28T14:20:33;0.20;;;0.20;;
13481;SDS011;6813;60.352;15.746;2023-02-28T14:23:30;0.20;;;0.20;;
13481;SDS011;6813;60.352;15.746;2023-02-28T14:29:11;0.53;;;0.30;;
13481;SDS011;6813;60.352;15.746;2023-02-28T14:31:42;0.73;;;0.37;;
13481;SDS011;6813;60.352;15.746;2023-02-28T14:34:21;0.23;;;0.23;;
13481;SDS011;6813;60.352;15.746;2023-02-28T14:37:08;0.50;;;0.27;;
13481;SDS011;6813;60.352;15.746;2023-02-28T14:39:41;0.60;;;0.30;;
13481;SDS011;6813;60.352;15.746;2023-02-28T14:42:28;1.07;;;0.20;;
13481;SDS011;6813;60.352;15.746;2023-02-28T14:44:56;0.70;;;0.30;;
13481;SDS011;6813;60.352;15.746;2023-02-28T14:47:22;0.27;;;0.20;;
13481;SDS011;6813;60.352;15.746;2023-02-28T14:49:52;1.50;;;0.30;;
13481;SDS011;6813;60.352;15.746;2023-02-28T14:52:22;0.20;;;0.20;;
13481;SDS011;6813;60.352;15.746;2023-02-28T14:54:59;0.30;;;0.30;;
13481;SDS011;6813;60.352;15.746;2023-02-28T14:57:32;1.17;;;0.40;;
13481;SDS011;6813;60.352;15.746;2023-02-28T15:00:03;1.03;;;0.40;;
13481;SDS011;6813;60.352;15.746;2023-02-28T15:02:36;0.17;;;0.10;;
13481;SDS011;6813;60.352;15.746;2023-02-28T15:05:50;0.20;;;0.20;;
13481;SDS011;6813;60.352;15.746;2023-02-28T15:08:03;0.63;;;0.60;;
13481;SDS011;6813;60.352;15.746;2023-02-28T15:10:50;1.13;;;0.40;;
13481;SDS011;6813;60.352;15.746;2023-02-28T15:13:43;0.20;;;0.20;;
13481;SDS011;6813;60.352;15.746;2023-02-28T15:16:15;0.97;;;0.50;;
13481;SDS011;6813;60.352;15.746;2023-02-28T15:18:48;0.30;;;0.30;;
13481;SDS011;6813;60.352;15.746;2023-02-28T15:21:23;0.60;;;0.30;;
13481;SDS011;6813;60.352;15.746;2023-02-28T15:23:54;2.00;;;0.50;;
13481;SDS011;6813;60.352;15.746;2023-02-28T15:26:57;1.20;;;1.07;;
13481;SDS011;6813;60.352;15.746;2023-02-28T15:29:25;0.83;;;0.70;;
13481;SDS011;6813;60.352;15.746;2023-02-28T15:32:06;0.90;;;0.70;;
13481;SDS011;6813;60.352;15.746;2023-02-28T15:34:37;0.70;;;0.70;;
13481;SDS011;6813;60.352;15.746;2023-02-28T15:39:52;1.07;;;0.70;;
13481;SDS011;6813;60.352;15.746;2023-02-28T15:42:20;1.10;;;0.53;;
13481;SDS011;6813;60.352;15.746;2023-02-28T15:44:47;0.87;;;0.50;;
13481;SDS011;6813;60.352;15.746;2023-02-28T15:49:52;0.83;;;0.20;;
13481;SDS011;6813;60.352;15.746;2023-02-28T15:52:26;0.40;;;0.30;;
13481;SDS011;6813;60.352;15.746;2023-02-28T15:57:57;1.83;;;0.37;;
13481;SDS011;6813;60.352;15.746;2023-02-28T16:00:27;0.20;;;0.20;;
13481;SDS011;6813;60.352;15.746;2023-02-28T16:02:54;0.23;;;0.20;;
13481;SDS011;6813;60.352;15.746;2023-02-28T16:07:56;0.53;;;0.30;;
13481;SDS011;6813;60.352;15.746;2023-02-28T16:10:23;0.33;;;0.30;;
13481;SDS011;6813;60.352;15.746;2023-02-28T16:12:52;0.53;;;0.33;;
13481;SDS011;6813;60.352;15.746;2023-02-28T16:15:28;0.30;;;0.30;;
13481;SDS011;6813;60.352;15.746;2023-02-28T16:17:57;0.80;;;0.30;;
13481;SDS011;6813;60.352;15.746;2023-02-28T16:20:27;0.40;;;0.27;;
13481;SDS011;6813;60.352;15.746;2023-02-28T16:22:54;0.83;;;0.67;;
13481;SDS011;6813;60.352;15.746;2023-02-28T16:25:22;0.53;;;0.30;;
13481;SDS011;6813;60.352;15.746;2023-02-28T16:27:52;0.77;;;0.57;;
13481;SDS011;6813;60.352;15.746;2023-02-28T16:30:20;0.80;;;0.60;;
13481;SDS011;6813;60.352;15.746;2023-02-28T16:32:47;1.07;;;0.60;;
13481;SDS011;6813;60.352;15.746;2023-02-28T16:35:14;1.13;;;0.70;;
13481;SDS011;6813;60.352;15.746;2023-02-28T16:37:41;1.50;;;0.80;;
13481;SDS011;6813;60.352;15.746;2023-02-28T16:40:09;1.80;;;0.80;;
13481;SDS011;6813;60.352;15.746;2023-02-28T16:42:43;2.33;;;0.90;;
13481;SDS011;6813;60.352;15.746;2023-02-28T16:45:26;4.10;;;1.63;;
13481;SDS011;6813;60.352;15.746;2023-02-28T16:47:55;4.90;;;2.03;;
13481;SDS011;6813;60.352;15.746;2023-02-28T16:50:22;5.13;;;2.13;;
13481;SDS011;6813;60.352;15.746;2023-02-28T16:52:49;9.13;;;3.03;;
13481;SDS011;6813;60.352;15.746;2023-02-28T16:55:17;3.53;;;1.47;;
13481;SDS011;6813;60.352;15.746;2023-02-28T16:57:50;7.17;;;2.33;;
13481;SDS011;6813;60.352;15.746;2023-02-28T17:00:17;3.57;;;1.93;;
13481;SDS011;6813;60.352;15.746;2023-02-28T17:02:44;3.07;;;1.77;;
13481;SDS011;6813;60.352;15.746;2023-02-28T17:05:11;1.10;;;0.87;;
13481;SDS011;6813;60.352;15.746;2023-02-28T17:07:38;0.70;;;0.47;;
13481;SDS011;6813;60.352;15.746;2023-02-28T17:12:39;1.60;;;0.77;;
13481;SDS011;6813;60.352;15.746;2023-02-28T17:15:05;0.50;;;0.50;;
13481;SDS011;6813;60.352;15.746;2023-02-28T17:17:31;0.80;;;0.50;;
13481;SDS011;6813;60.352;15.746;2023-02-28T17:19:57;0.40;;;0.40;;
13481;SDS011;6813;60.352;15.746;2023-02-28T17:22:23;0.93;;;0.50;;
13481;SDS011;6813;60.352;15.746;2023-02-28T17:24:50;0.83;;;0.53;;
13481;SDS011;6813;60.352;15.746;2023-02-28T17:27:20;2.60;;;0.80;;
13481;SDS011;6813;60.352;15.746;2023-02-28T17:29:46;0.30;;;0.30;;
13481;SDS011;6813;60.352;15.746;2023-02-28T17:32:12;0.30;;;0.30;;
13481;SDS011;6813;60.352;15.746;2023-02-28T17:34:38;0.40;;;0.23;;
13481;SDS011;6813;60.352;15.746;2023-02-28T17:37:04;0.40;;;0.40;;
13481;SDS011;6813;60.352;15.746;2023-02-28T17:39:30;0.83;;;0.50;;
13481;SDS011;6813;60.352;15.746;2023-02-28T17:41:56;0.67;;;0.40;;
13481;SDS011;6813;60.352;15.746;2023-02-28T17:44:22;0.37;;;0.37;;
13481;SDS011;6813;60.352;15.746;2023-02-28T17:46:49;1.10;;;0.40;;
13481;SDS011;6813;60.352;15.746;2023-02-28T17:49:15;1.40;;;0.30;;